Spotsylvania, VA (22553)

2:02 AM EDT on April 28, 2015 (GMT -0400)
Waterford | | Change Station
CLOSE
Current Station
Personal Weather Station
Location: Spotsylvania, VA
Elevation: 354 ft
Nearby Weather Stations

Elev 354 ft 38.19 °N, 77.57 °W | Updated 1 minute ago

Clear
Clear
44.1 °F
Feels Like 44 °F
N
2.2
Wind Variable Wind from West

Today
High -- | Low -- °F
--% Chance of Precip.
Yesterday
High -- | Low -- °F
Precip. -- in
6:18 AM 7:58 PM
Waxing Gibbous, 71% visible
Pressure 29.93 in
Visibility 10.0 miles
Clouds Clear
Windchill 44 °F
Dew Point 36 °F
Humidity 72%
Rainfall 0.00 in
Snow Depth Not available.
UV 0 out of 12
Pollen 10.60 out of 12
Air Quality Not available.
Flu Activity Sporadic
METAR KEZF 280515Z AUTO 32010G16KT 10SM CLR 10/02 A2993 RMK AO2 T00970015

More Conditions Fewer Conditions

Pressure 29.93 in
Visibility 10.0 miles
Clouds Clear
Windchill 44 °F
Dew Point 36 °F
Humidity 72%
Rainfall 0.00 in
Snow Depth Not available.
UV 0 out of 12
Pollen 10.60 out of 12
Air Quality Not available.
Flu Activity Sporadic
METAR KEZF 280515Z AUTO 32010G16KT 10SM CLR 10/02 A2993 RMK AO2 T00970015

More Conditions Fewer Conditions

10-Day Weather Forecast

Almanac

Astronomy

Apr. 28, 2015 Rise Set
Actual Time
Civil Twilight
Nautical Twilight
Astronomical Twilight
Moon
Length of Visible Light
Length of Day
Tomorrow will be .
, % of the Moon is Illuminated

Today's Extremes

State Highs State Lows

Community

WunderPhotos

Upload Photos

1,817,589 photos uploaded!

WunderBlogs® & News

Nearby

Air Quality

  Air Quality AQ Index Pollutant
Not available.

Snow Depth

Station Depth Elevation

Earthquake Activity

City Distance Mag. Time & Date
Minimum magnitude displayed is 2.5.

Coastal Water Temperatures

Place Temperature

Stations

Nearby Weather Stations

Station Location Temp. Windchill Dew Point Humidity Wind Precip. Elev Updated Type